createdAt,value
2023-05-02T00:00:29.955Z,394.00
2023-05-02T00:01:29.890Z,395.00
2023-05-02T00:02:29.995Z,396.00
2023-05-02T00:03:29.950Z,397.00
2023-05-02T00:04:29.983Z,397.00
2023-05-02T00:05:29.885Z,396.00
2023-05-02T00:06:29.930Z,396.00
2023-05-02T00:07:29.846Z,397.00
2023-05-02T00:08:29.841Z,398.00
2023-05-02T00:09:29.838Z,397.00
2023-05-02T00:10:29.832Z,397.00
2023-05-02T00:11:29.843Z,397.00
2023-05-02T00:12:29.822Z,396.00
2023-05-02T00:13:29.816Z,397.00
2023-05-02T00:14:29.798Z,397.00
2023-05-02T00:15:29.791Z,399.00
2023-05-02T00:16:29.896Z,396.00
2023-05-02T00:17:29.822Z,394.00
2023-05-02T00:18:29.803Z,396.00
2023-05-02T00:19:29.773Z,398.00
2023-05-02T00:20:29.767Z,401.00
2023-05-02T00:21:29.772Z,402.00
2023-05-02T00:22:29.789Z,398.00
2023-05-02T00:23:29.755Z,398.00
2023-05-02T00:24:29.745Z,400.00
2023-05-02T00:25:29.752Z,400.00
2023-05-02T00:26:29.729Z,401.00
2023-05-02T00:27:29.714Z,402.00
2023-05-02T00:28:29.718Z,401.00
2023-05-02T00:29:29.715Z,398.00
2023-05-02T00:30:29.710Z,401.00
2023-05-02T00:31:29.739Z,401.00
2023-05-02T00:32:29.731Z,398.00
2023-05-02T00:33:29.695Z,397.00
2023-05-02T00:34:29.677Z,395.00
2023-05-02T00:35:29.668Z,394.00
2023-05-02T00:36:29.668Z,395.00
2023-05-02T00:37:29.667Z,396.00
2023-05-02T00:38:29.657Z,396.00
2023-05-02T00:39:29.646Z,395.00
2023-05-02T00:40:29.626Z,396.00
2023-05-02T00:41:29.653Z,397.00
2023-05-02T00:42:29.646Z,399.00
2023-05-02T00:43:29.629Z,399.00
2023-05-02T00:44:29.649Z,400.00
2023-05-02T00:45:29.670Z,399.00
2023-05-02T00:46:29.732Z,399.00
2023-05-02T00:47:29.793Z,399.00
2023-05-02T00:48:29.731Z,402.00
2023-05-02T00:49:29.762Z,402.00
2023-05-02T00:50:29.793Z,404.00
2023-05-02T00:51:29.805Z,403.00
2023-05-02T00:52:29.829Z,403.00
2023-05-02T00:53:29.856Z,405.00
2023-05-02T00:54:29.875Z,405.00
2023-05-02T00:55:29.883Z,405.00
2023-05-02T00:56:29.885Z,405.00
2023-05-02T00:57:29.920Z,403.00
2023-05-02T00:58:29.993Z,401.00
2023-05-02T00:59:29.916Z,402.00
2023-05-02T01:00:29.933Z,400.00
2023-05-02T01:01:30.033Z,398.00
2023-05-02T01:02:30.049Z,397.00
2023-05-02T01:03:30.104Z,394.00
2023-05-02T01:04:30.011Z,393.00
2023-05-02T01:05:30.036Z,393.00
2023-05-02T01:06:30.133Z,393.00
2023-05-02T01:07:30.071Z,392.00
2023-05-02T01:08:30.101Z,391.00
2023-05-02T01:09:30.108Z,390.00
2023-05-02T01:10:30.134Z,393.00
2023-05-02T01:11:30.165Z,393.00
2023-05-02T01:12:30.201Z,392.00
2023-05-02T01:13:30.192Z,392.00
2023-05-02T01:14:30.230Z,393.00
2023-05-02T01:15:30.234Z,391.00
2023-05-02T01:16:30.249Z,388.00
2023-05-02T01:17:30.288Z,388.00
2023-05-02T01:18:30.306Z,389.00
2023-05-02T01:19:30.285Z,389.00
2023-05-02T01:20:30.300Z,386.00
2023-05-02T01:21:30.300Z,388.00
2023-05-02T01:22:30.335Z,388.00
2023-05-02T01:23:30.356Z,391.00
2023-05-02T01:24:30.362Z,391.00
2023-05-02T01:25:30.365Z,390.00
2023-05-02T01:26:30.406Z,391.00
2023-05-02T01:27:30.398Z,394.00
2023-05-02T01:28:30.436Z,393.00
2023-05-02T01:29:30.453Z,394.00
2023-05-02T01:30:30.462Z,395.00
2023-05-02T01:31:30.520Z,395.00
2023-05-02T01:32:30.581Z,397.00
2023-05-02T01:33:30.555Z,396.00
2023-05-02T01:34:30.579Z,394.00
2023-05-02T01:35:30.575Z,394.00
2023-05-02T01:36:30.588Z,393.00
2023-05-02T01:37:30.605Z,395.00
2023-05-02T01:38:30.649Z,397.00
2023-05-02T01:39:30.668Z,397.00
2023-05-02T01:40:30.678Z,395.00
2023-05-02T01:41:30.709Z,397.00
2023-05-02T01:42:30.732Z,398.00
2023-05-02T01:43:30.753Z,398.00
2023-05-02T01:44:30.773Z,398.00
2023-05-02T01:45:30.777Z,400.00
2023-05-02T01:46:30.874Z,400.00
2023-05-02T01:47:30.845Z,400.00
2023-05-02T01:48:30.979Z,400.00
2023-05-02T01:49:30.856Z,401.00
2023-05-02T01:50:30.878Z,399.00
2023-05-02T01:51:30.905Z,400.00
2023-05-02T01:52:30.939Z,400.00
2023-05-02T01:53:30.980Z,400.00
2023-05-02T01:54:30.994Z,399.00
2023-05-02T01:55:31.029Z,400.00
2023-05-02T01:56:31.053Z,399.00
2023-05-02T01:57:31.060Z,399.00
2023-05-02T01:58:31.109Z,401.00
2023-05-02T01:59:31.154Z,401.00
2023-05-02T02:00:31.145Z,403.00
2023-05-02T02:01:31.302Z,403.00
2023-05-02T02:02:31.225Z,405.00
2023-05-02T02:03:31.250Z,402.00
2023-05-02T02:04:31.276Z,401.00
2023-05-02T02:05:31.282Z,400.00
2023-05-02T02:06:31.352Z,400.00
2023-05-02T02:07:31.333Z,401.00
2023-05-02T02:08:31.347Z,402.00
2023-05-02T02:09:31.399Z,403.00
2023-05-02T02:10:31.413Z,403.00
2023-05-02T02:11:31.423Z,403.00
2023-05-02T02:12:31.471Z,401.00
2023-05-02T02:13:31.492Z,400.00
2023-05-02T02:14:31.519Z,400.00
2023-05-02T02:15:31.556Z,401.00
2023-05-02T02:16:31.671Z,402.00
2023-05-02T02:17:31.630Z,398.00
2023-05-02T02:18:31.618Z,398.00
2023-05-02T02:19:31.628Z,399.00
2023-05-02T02:20:31.643Z,398.00
2023-05-02T02:21:31.669Z,398.00
2023-05-02T02:22:31.717Z,396.00
2023-05-02T02:23:31.743Z,396.00
2023-05-02T02:24:31.763Z,394.00
2023-05-02T02:25:31.795Z,395.00
2023-05-02T02:26:31.794Z,395.00
2023-05-02T02:27:31.825Z,394.00
2023-05-02T02:28:31.846Z,394.00
2023-05-02T02:29:31.905Z,396.00
2023-05-02T02:30:32.014Z,396.00
2023-05-02T02:31:32.060Z,397.00
2023-05-02T02:32:31.968Z,396.00
2023-05-02T02:33:31.981Z,397.00
2023-05-02T02:34:32.017Z,399.00
2023-05-02T02:35:32.042Z,400.00
2023-05-02T02:36:32.035Z,401.00
2023-05-02T02:37:32.071Z,401.00
2023-05-02T02:38:32.096Z,400.00
2023-05-02T02:39:32.140Z,399.00
2023-05-02T02:40:32.150Z,400.00
2023-05-02T02:41:32.206Z,399.00
2023-05-02T02:42:32.192Z,397.00
2023-05-02T02:43:32.233Z,398.00
2023-05-02T02:44:32.269Z,396.00
2023-05-02T02:45:32.280Z,397.00
2023-05-02T02:46:32.365Z,399.00
2023-05-02T02:47:32.438Z,398.00
2023-05-02T02:48:32.386Z,400.00
2023-05-02T02:49:32.415Z,400.00
2023-05-02T02:50:32.450Z,400.00
2023-05-02T02:51:32.463Z,398.00
2023-05-02T02:52:32.497Z,398.00
2023-05-02T02:53:32.529Z,398.00
2023-05-02T02:54:32.549Z,398.00
2023-05-02T02:55:32.564Z,401.00
2023-05-02T02:56:32.606Z,402.00
2023-05-02T02:57:32.620Z,404.00
2023-05-02T02:58:32.663Z,404.00
2023-05-02T02:59:32.702Z,405.00
2023-05-02T03:00:32.695Z,406.00
2023-05-02T03:01:32.806Z,406.00
2023-05-02T03:02:32.859Z,408.00
2023-05-02T03:03:32.732Z,407.00
2023-05-02T03:04:32.718Z,406.00
2023-05-02T03:05:32.736Z,409.00
2023-05-02T03:06:32.762Z,409.00
2023-05-02T03:07:32.730Z,407.00
2023-05-02T03:08:32.743Z,405.00
2023-05-02T03:09:32.773Z,404.00
2023-05-02T03:10:32.776Z,404.00
2023-05-02T03:11:32.806Z,405.00
2023-05-02T03:12:32.811Z,405.00
2023-05-02T03:13:32.831Z,403.00
2023-05-02T03:14:32.844Z,404.00
2023-05-02T03:15:32.840Z,402.00
2023-05-02T03:16:32.890Z,402.00
2023-05-02T03:17:32.951Z,401.00
2023-05-02T03:18:32.911Z,402.00
2023-05-02T03:19:32.957Z,404.00
2023-05-02T03:20:32.971Z,404.00
2023-05-02T03:21:32.980Z,404.00
2023-05-02T03:22:33.000Z,404.00
2023-05-02T03:23:33.034Z,402.00
2023-05-02T03:24:33.067Z,402.00
2023-05-02T03:25:33.083Z,400.00
2023-05-02T03:26:33.107Z,399.00
2023-05-02T03:27:33.085Z,399.00
2023-05-02T03:28:33.136Z,396.00
2023-05-02T03:29:33.153Z,398.00
2023-05-02T03:30:33.176Z,397.00
2023-05-02T03:31:33.223Z,398.00
2023-05-02T03:32:33.210Z,399.00
2023-05-02T03:33:33.213Z,400.00
2023-05-02T03:34:33.250Z,398.00
2023-05-02T03:35:33.243Z,398.00
2023-05-02T03:36:33.275Z,399.00
2023-05-02T03:37:33.273Z,401.00
2023-05-02T03:38:33.295Z,400.00
2023-05-02T03:39:33.306Z,399.00
2023-05-02T03:40:33.311Z,399.00
2023-05-02T03:41:33.350Z,401.00
2023-05-02T03:42:33.409Z,403.00
2023-05-02T03:43:33.403Z,403.00
2023-05-02T03:44:33.439Z,402.00
2023-05-02T03:45:33.455Z,403.00
2023-05-02T03:46:33.532Z,403.00
2023-05-02T03:47:33.540Z,404.00
2023-05-02T03:48:33.520Z,406.00
2023-05-02T03:49:33.566Z,407.00
2023-05-02T03:50:33.588Z,406.00
2023-05-02T03:51:33.614Z,406.00
2023-05-02T03:52:33.622Z,406.00
2023-05-02T03:53:33.635Z,406.00
2023-05-02T03:54:33.647Z,404.00
2023-05-02T03:55:33.668Z,404.00
2023-05-02T03:56:33.708Z,403.00
2023-05-02T03:57:33.706Z,402.00
2023-05-02T03:58:33.762Z,401.00
2023-05-02T03:59:33.785Z,401.00
2023-05-02T04:00:33.801Z,402.00
2023-05-02T04:01:33.933Z,402.00
2023-05-02T04:02:33.994Z,400.00
2023-05-02T04:03:33.976Z,401.00
2023-05-02T04:04:33.880Z,402.00
2023-05-02T04:05:33.861Z,405.00
2023-05-02T04:06:33.914Z,403.00
2023-05-02T04:07:33.893Z,403.00
2023-05-02T04:08:33.915Z,406.00
2023-05-02T04:09:33.950Z,408.00
2023-05-02T04:10:33.987Z,407.00
2023-05-02T04:11:34.026Z,405.00
2023-05-02T04:12:34.032Z,403.00
2023-05-02T04:13:34.068Z,402.00
2023-05-02T04:14:34.078Z,404.00
2023-05-02T04:15:34.164Z,405.00
2023-05-02T04:16:34.159Z,406.00
2023-05-02T04:17:34.245Z,407.00
2023-05-02T04:18:34.209Z,406.00
2023-05-02T04:19:34.232Z,405.00
2023-05-02T04:20:34.250Z,404.00
2023-05-02T04:21:34.267Z,403.00
2023-05-02T04:22:34.324Z,406.00
2023-05-02T04:23:34.370Z,401.00
2023-05-02T04:24:34.410Z,400.00
2023-05-02T04:25:34.391Z,399.00
2023-05-02T04:26:34.422Z,400.00
2023-05-02T04:27:34.428Z,401.00
2023-05-02T04:28:34.451Z,402.00
2023-05-02T04:29:34.454Z,405.00
2023-05-02T04:30:34.504Z,406.00
2023-05-02T04:31:34.686Z,405.00
2023-05-02T04:32:34.505Z,405.00
2023-05-02T04:33:34.519Z,403.00
2023-05-02T04:34:34.551Z,403.00
2023-05-02T04:35:34.567Z,401.00
2023-05-02T04:36:34.581Z,401.00
2023-05-02T04:37:34.625Z,399.00
2023-05-02T04:38:34.626Z,398.00
2023-05-02T04:39:34.641Z,400.00
2023-05-02T04:40:34.676Z,399.00
2023-05-02T04:41:34.699Z,399.00
2023-05-02T04:42:34.721Z,399.00
2023-05-02T04:43:34.721Z,401.00
2023-05-02T04:44:34.739Z,399.00
2023-05-02T04:45:34.783Z,399.00
2023-05-02T04:46:34.863Z,400.00
2023-05-02T04:47:34.926Z,402.00
2023-05-02T04:48:34.860Z,404.00
2023-05-02T04:49:34.899Z,403.00
2023-05-02T04:50:34.930Z,401.00
2023-05-02T04:51:34.958Z,401.00
2023-05-02T04:52:35.011Z,403.00
2023-05-02T04:53:35.034Z,403.00
2023-05-02T04:54:35.084Z,404.00
2023-05-02T04:55:35.081Z,407.00
2023-05-02T04:56:35.110Z,404.00
2023-05-02T04:57:35.145Z,404.00
2023-05-02T04:58:35.160Z,403.00
2023-05-02T04:59:35.184Z,402.00
2023-05-02T05:00:35.202Z,400.00
2023-05-02T05:01:35.281Z,397.00
2023-05-02T05:02:35.289Z,397.00
2023-05-02T05:03:35.278Z,396.00
2023-05-02T05:04:35.280Z,395.00
2023-05-02T05:05:35.315Z,394.00
2023-05-02T05:06:35.351Z,392.00
2023-05-02T05:07:35.320Z,393.00
2023-05-02T05:08:35.325Z,392.00
2023-05-02T05:09:35.333Z,394.00
2023-05-02T05:10:35.351Z,395.00
2023-05-02T05:11:35.372Z,396.00
2023-05-02T05:12:35.375Z,397.00
2023-05-02T05:13:35.372Z,398.00
2023-05-02T05:14:35.393Z,396.00
2023-05-02T05:15:35.393Z,399.00
2023-05-02T05:16:35.507Z,398.00
2023-05-02T05:17:35.487Z,398.00
2023-05-02T05:18:35.479Z,399.00
2023-05-02T05:19:35.480Z,401.00
2023-05-02T05:20:35.504Z,401.00
2023-05-02T05:21:35.484Z,399.00
2023-05-02T05:22:35.476Z,398.00
2023-05-02T05:23:35.491Z,399.00
2023-05-02T05:24:35.524Z,398.00
2023-05-02T05:25:35.528Z,398.00
2023-05-02T05:26:35.567Z,398.00
2023-05-02T05:27:35.585Z,402.00
2023-05-02T05:28:35.606Z,426.00
2023-05-02T05:29:35.668Z,445.00
2023-05-02T05:30:35.686Z,443.00
2023-05-02T05:31:35.727Z,452.00
2023-05-02T05:32:35.762Z,550.00
2023-05-02T05:33:35.790Z,556.00
2023-05-02T05:34:35.746Z,569.00
2023-05-02T05:35:35.813Z,653.00
2023-05-02T05:36:35.866Z,664.00
2023-05-02T05:37:35.918Z,671.00
2023-05-02T05:38:35.989Z,801.00
2023-05-02T05:39:35.975Z,794.00
2023-05-02T05:40:35.992Z,907.00
2023-05-02T05:41:36.013Z,918.00
2023-05-02T05:42:36.035Z,861.00
2023-05-02T05:43:38.014Z,855.00
2023-05-02T05:44:36.087Z,877.00
2023-05-02T05:45:36.110Z,883.00
2023-05-02T05:46:36.184Z,892.00
2023-05-02T05:47:36.296Z,900.00
2023-05-02T05:48:36.150Z,900.00
2023-05-02T05:49:38.433Z,909.00
2023-05-02T05:50:36.137Z,916.00
2023-05-02T05:51:36.140Z,916.00
2023-05-02T05:52:36.145Z,926.00
2023-05-02T05:53:36.127Z,924.00
2023-05-02T05:54:36.130Z,919.00
2023-05-02T05:55:37.504Z,924.00
2023-05-02T05:56:36.127Z,915.00
2023-05-02T05:57:36.098Z,865.00
2023-05-02T05:58:36.091Z,861.00
2023-05-02T05:59:36.213Z,917.00
2023-05-02T06:00:36.085Z,919.00
2023-05-02T06:01:36.060Z,916.00
2023-05-02T06:02:36.204Z,907.00
2023-05-02T06:03:36.294Z,927.00
2023-05-02T06:04:36.088Z,942.00
2023-05-02T06:05:36.129Z,954.00
2023-05-02T06:06:36.075Z,956.00
2023-05-02T06:07:36.055Z,957.00
2023-05-02T06:08:36.034Z,950.00
2023-05-02T06:09:36.020Z,944.00
2023-05-02T06:10:36.033Z,937.00
2023-05-02T06:11:36.012Z,920.00
2023-05-02T06:12:36.059Z,840.00
2023-05-02T06:13:36.000Z,871.00
2023-05-02T06:14:35.981Z,772.00
2023-05-02T06:15:35.981Z,783.00
2023-05-02T06:16:36.012Z,729.00
2023-05-02T06:17:36.098Z,711.00
2023-05-02T06:18:35.958Z,706.00
2023-05-02T06:19:35.957Z,650.00
2023-05-02T06:20:35.942Z,723.00
2023-05-02T06:21:36.016Z,719.00
2023-05-02T06:22:35.935Z,708.00
2023-05-02T06:23:36.785Z,672.00
2023-05-02T06:24:35.916Z,669.00
2023-05-02T06:25:35.970Z,653.00
2023-05-02T06:26:35.983Z,644.00
2023-05-02T06:27:35.979Z,637.00
2023-05-02T06:28:35.982Z,638.00
2023-05-02T06:29:35.978Z,620.00
2023-05-02T06:30:35.997Z,565.00
2023-05-02T06:31:36.034Z,569.00
2023-05-02T06:32:36.080Z,660.00
2023-05-02T06:33:36.066Z,695.00
2023-05-02T06:34:36.579Z,731.00
2023-05-02T06:35:36.102Z,755.00
2023-05-02T06:36:36.113Z,579.00
2023-05-02T06:37:36.165Z,585.00
2023-05-02T06:38:36.226Z,674.00
2023-05-02T06:39:36.556Z,645.00
2023-05-02T06:40:36.329Z,708.00
2023-05-02T06:41:36.378Z,716.00
2023-05-02T06:42:36.439Z,769.00
2023-05-02T06:43:36.466Z,732.00
2023-05-02T06:44:36.552Z,717.00
2023-05-02T06:45:36.538Z,712.00
2023-05-02T06:46:36.636Z,719.00
2023-05-02T06:47:37.120Z,701.00
2023-05-02T06:48:36.657Z,699.00
2023-05-02T06:49:36.675Z,710.00
2023-05-02T06:50:36.708Z,714.00
2023-05-02T06:51:36.804Z,694.00
2023-05-02T06:52:36.834Z,687.00
2023-05-02T06:53:36.894Z,667.00
2023-05-02T06:54:36.903Z,672.00
2023-05-02T06:55:36.879Z,698.00
2023-05-02T06:56:36.888Z,678.00
2023-05-02T06:57:36.904Z,686.00
2023-05-02T06:58:36.948Z,688.00
2023-05-02T06:59:37.057Z,697.00
2023-05-02T07:00:37.027Z,699.00
2023-05-02T07:01:37.208Z,697.00
2023-05-02T07:02:37.683Z,700.00
2023-05-02T07:03:37.201Z,698.00
2023-05-02T07:04:37.260Z,719.00
2023-05-02T07:05:37.288Z,743.00
2023-05-02T07:06:37.394Z,710.00
2023-05-02T07:07:37.413Z,741.00
2023-05-02T07:08:37.403Z,695.00
2023-05-02T07:09:37.459Z,676.00
2023-05-02T07:10:37.475Z,677.00
2023-05-02T07:11:37.474Z,670.00
2023-05-02T07:12:37.582Z,660.00
2023-05-02T07:13:37.515Z,651.00
2023-05-02T07:14:37.589Z,656.00
2023-05-02T07:15:37.559Z,677.00
2023-05-02T07:16:37.612Z,770.00
2023-05-02T07:17:37.650Z,778.00
2023-05-02T07:18:37.653Z,792.00
2023-05-02T07:19:37.571Z,811.00
2023-05-02T07:20:37.776Z,812.00
2023-05-02T07:21:37.619Z,815.00
2023-05-02T07:22:38.073Z,819.00
2023-05-02T07:23:37.632Z,885.00
2023-05-02T07:24:37.614Z,905.00
2023-05-02T07:25:37.656Z,870.00
2023-05-02T07:26:37.627Z,873.00
2023-05-02T07:27:38.067Z,879.00
2023-05-02T07:28:37.670Z,880.00
2023-05-02T07:29:37.714Z,881.00
2023-05-02T07:30:37.748Z,886.00
2023-05-02T07:31:37.834Z,902.00
2023-05-02T07:32:37.906Z,922.00
2023-05-02T07:33:37.874Z,926.00
2023-05-02T07:34:37.905Z,926.00
2023-05-02T07:35:37.937Z,920.00
2023-05-02T07:36:37.995Z,921.00
2023-05-02T07:37:38.034Z,917.00
2023-05-02T07:38:37.992Z,916.00
2023-05-02T07:39:38.076Z,918.00
2023-05-02T07:40:38.007Z,915.00
2023-05-02T07:41:37.961Z,910.00
2023-05-02T07:42:37.964Z,908.00
2023-05-02T07:43:38.021Z,900.00
2023-05-02T07:44:38.057Z,886.00
2023-05-02T07:45:38.103Z,882.00
2023-05-02T07:46:38.272Z,875.00
2023-05-02T07:47:38.665Z,868.00
2023-05-02T07:48:38.220Z,862.00
2023-05-02T07:49:38.278Z,855.00
2023-05-02T07:50:38.325Z,849.00
2023-05-02T07:51:38.435Z,842.00
2023-05-02T07:52:38.446Z,839.00
2023-05-02T07:53:38.431Z,834.00
2023-05-02T07:54:38.414Z,830.00
2023-05-02T07:55:38.415Z,821.00
2023-05-02T07:56:38.535Z,813.00
2023-05-02T07:57:38.427Z,777.00
2023-05-02T07:58:38.428Z,768.00
2023-05-02T07:59:38.430Z,760.00
2023-05-02T08:00:38.456Z,745.00
2023-05-02T08:01:38.495Z,732.00
2023-05-02T08:02:38.528Z,728.00
2023-05-02T08:03:38.563Z,713.00
2023-05-02T08:04:38.509Z,698.00
2023-05-02T08:05:38.466Z,688.00
2023-05-02T08:06:38.459Z,679.00
2023-05-02T08:07:38.464Z,680.00
2023-05-02T08:08:38.439Z,675.00
2023-05-02T08:09:38.444Z,671.00
2023-05-02T08:10:38.604Z,667.00
2023-05-02T08:11:38.457Z,663.00
2023-05-02T08:12:38.484Z,659.00
2023-05-02T08:13:38.478Z,656.00
2023-05-02T08:14:38.570Z,658.00
2023-05-02T08:15:38.668Z,653.00
2023-05-02T08:16:38.820Z,648.00
2023-05-02T08:17:38.732Z,646.00
2023-05-02T08:18:38.659Z,609.00
2023-05-02T08:19:38.719Z,526.00
2023-05-02T08:20:39.105Z,513.00
2023-05-02T08:21:38.767Z,505.00
2023-05-02T08:22:39.137Z,526.00
2023-05-02T08:23:38.809Z,604.00
2023-05-02T08:24:38.871Z,596.00
2023-05-02T08:25:38.880Z,552.00
2023-05-02T08:26:38.937Z,565.00
2023-05-02T08:27:39.002Z,583.00
2023-05-02T08:28:39.045Z,557.00
2023-05-02T08:29:39.117Z,678.00
2023-05-02T08:30:39.166Z,679.00
2023-05-02T08:31:39.265Z,684.00
2023-05-02T08:32:39.330Z,688.00
2023-05-02T08:33:39.304Z,700.00
2023-05-02T08:34:39.344Z,761.00
2023-05-02T08:35:39.376Z,816.00
2023-05-02T08:36:39.404Z,736.00
2023-05-02T08:37:39.633Z,706.00
2023-05-02T08:38:39.468Z,638.00
2023-05-02T08:39:39.452Z,629.00
2023-05-02T08:40:42.167Z,616.00
2023-05-02T08:41:39.463Z,605.00
2023-05-02T08:42:39.618Z,591.00
2023-05-02T08:43:39.493Z,581.00
2023-05-02T08:44:39.492Z,538.00
2023-05-02T08:45:39.480Z,525.00
2023-05-02T08:46:39.526Z,513.00
2023-05-02T08:47:39.674Z,507.00
2023-05-02T08:48:39.507Z,505.00
2023-05-02T08:49:39.461Z,494.00
2023-05-02T08:50:39.626Z,484.00
2023-05-02T08:51:40.420Z,483.00
2023-05-02T08:52:39.380Z,476.00
2023-05-02T08:53:39.372Z,467.00
2023-05-02T08:54:39.413Z,472.00
2023-05-02T08:55:39.387Z,468.00
2023-05-02T08:56:39.460Z,508.00
2023-05-02T08:57:39.360Z,502.00
2023-05-02T08:58:39.350Z,488.00
2023-05-02T08:59:39.386Z,488.00
2023-05-02T09:00:39.352Z,491.00
2023-05-02T09:01:39.373Z,496.00
2023-05-02T09:02:39.456Z,504.00
2023-05-02T09:03:39.300Z,514.00
2023-05-02T09:04:39.344Z,524.00
2023-05-02T09:05:39.315Z,531.00
2023-05-02T09:06:39.301Z,545.00
2023-05-02T09:07:39.275Z,551.00
2023-05-02T09:08:39.264Z,558.00
2023-05-02T09:09:39.253Z,559.00
2023-05-02T09:10:39.270Z,556.00
2023-05-02T09:11:39.229Z,567.00
2023-05-02T09:12:39.246Z,576.00
2023-05-02T09:13:39.229Z,574.00
2023-05-02T09:14:39.226Z,572.00
2023-05-02T09:15:39.225Z,619.00
2023-05-02T09:16:39.297Z,610.00
2023-05-02T09:17:39.221Z,604.00
2023-05-02T09:18:39.210Z,640.00
2023-05-02T09:19:39.191Z,663.00
2023-05-02T09:20:39.185Z,680.00
2023-05-02T09:21:39.184Z,716.00
2023-05-02T09:22:39.187Z,739.00
2023-05-02T09:23:39.639Z,744.00
2023-05-02T09:24:39.153Z,760.00
2023-05-02T09:25:39.146Z,811.00
2023-05-02T09:26:39.131Z,829.00
2023-05-02T09:27:39.135Z,819.00
2023-05-02T09:28:39.621Z,828.00
2023-05-02T09:29:39.305Z,833.00
2023-05-02T09:30:39.136Z,847.00
2023-05-02T09:32:39.123Z,835.00
2023-05-02T09:33:39.134Z,740.00
2023-05-02T09:34:39.086Z,705.00
2023-05-02T09:35:39.154Z,670.00
2023-05-02T09:36:39.057Z,662.00
2023-05-02T09:37:39.066Z,668.00
2023-05-02T09:38:39.064Z,655.00
2023-05-02T09:39:39.044Z,644.00
2023-05-02T09:40:39.043Z,618.00
2023-05-02T09:41:39.020Z,609.00
2023-05-02T09:42:39.007Z,610.00
2023-05-02T09:43:39.008Z,614.00
2023-05-02T09:44:39.011Z,607.00
2023-05-02T09:45:39.012Z,603.00
2023-05-02T09:46:39.065Z,598.00
2023-05-02T09:47:39.043Z,596.00
2023-05-02T09:48:39.014Z,589.00
2023-05-02T09:49:38.972Z,576.00
2023-05-02T09:50:38.953Z,564.00
2023-05-02T09:51:38.970Z,560.00
2023-05-02T09:52:38.957Z,563.00
2023-05-02T09:53:38.968Z,557.00
2023-05-02T09:54:38.972Z,550.00
2023-05-02T09:55:38.940Z,541.00
2023-05-02T09:56:38.926Z,541.00
2023-05-02T09:57:38.919Z,560.00
2023-05-02T09:58:38.943Z,563.00
2023-05-02T09:59:38.929Z,559.00
2023-05-02T10:00:38.906Z,545.00
2023-05-02T10:01:38.968Z,540.00
2023-05-02T10:02:38.928Z,533.00
2023-05-02T10:03:38.947Z,523.00
2023-05-02T10:04:38.931Z,517.00
2023-05-02T10:05:39.186Z,509.00
2023-05-02T10:06:38.918Z,510.00
2023-05-02T10:07:38.859Z,506.00
2023-05-02T10:08:39.149Z,497.00
2023-05-02T10:09:38.827Z,488.00
2023-05-02T10:10:39.153Z,483.00
2023-05-02T10:11:38.816Z,480.00
2023-05-02T10:12:38.846Z,480.00
2023-05-02T10:13:38.831Z,475.00
2023-05-02T10:14:38.801Z,473.00
2023-05-02T10:15:38.812Z,468.00
2023-05-02T10:16:38.796Z,465.00
2023-05-02T10:17:38.819Z,463.00
2023-05-02T10:18:38.777Z,463.00
2023-05-02T10:19:38.803Z,460.00
2023-05-02T10:20:38.772Z,457.00
2023-05-02T10:21:38.764Z,458.00
2023-05-02T10:22:38.776Z,458.00
2023-05-02T10:23:38.755Z,467.00
2023-05-02T10:24:38.721Z,527.00
2023-05-02T10:25:38.730Z,610.00
2023-05-02T10:26:38.727Z,620.00
2023-05-02T10:27:38.755Z,629.00
2023-05-02T10:28:39.182Z,680.00
2023-05-02T10:29:38.797Z,703.00
2023-05-02T10:30:39.155Z,749.00
2023-05-02T10:31:38.734Z,768.00
2023-05-02T10:32:38.726Z,812.00
2023-05-02T10:33:39.148Z,833.00
2023-05-02T10:34:38.677Z,845.00
2023-05-02T10:35:38.665Z,863.00
2023-05-02T10:36:38.654Z,905.00
2023-05-02T10:37:38.646Z,927.00
2023-05-02T10:38:38.644Z,933.00
2023-05-02T10:39:38.620Z,936.00
2023-05-02T10:40:38.622Z,944.00
2023-05-02T10:41:38.600Z,949.00
2023-05-02T10:42:38.606Z,949.00
2023-05-02T10:43:38.594Z,952.00
2023-05-02T10:44:38.662Z,943.00
2023-05-02T10:45:38.643Z,940.00
2023-05-02T10:46:38.666Z,936.00
2023-05-02T10:47:38.682Z,944.00
2023-05-02T10:48:38.670Z,943.00
2023-05-02T10:49:38.684Z,937.00
2023-05-02T10:50:38.711Z,942.00
2023-05-02T10:51:38.737Z,946.00
2023-05-02T10:52:38.819Z,951.00
2023-05-02T10:53:38.832Z,942.00
2023-05-02T10:54:38.862Z,937.00
2023-05-02T10:55:38.876Z,940.00
2023-05-02T10:56:38.906Z,930.00
2023-05-02T10:57:38.988Z,922.00
2023-05-02T10:58:38.985Z,914.00
2023-05-02T10:59:38.996Z,915.00
2023-05-02T11:00:39.052Z,915.00
2023-05-02T11:01:39.020Z,913.00
2023-05-02T11:02:39.101Z,912.00
2023-05-02T11:03:39.125Z,919.00
2023-05-02T11:04:39.110Z,919.00
2023-05-02T11:05:39.154Z,913.00
2023-05-02T11:06:39.184Z,913.00
2023-05-02T11:07:39.181Z,911.00
2023-05-02T11:08:39.226Z,906.00
2023-05-02T11:09:39.227Z,902.00
2023-05-02T11:10:39.255Z,869.00
2023-05-02T11:11:39.346Z,884.00
2023-05-02T11:12:39.344Z,895.00
2023-05-02T11:13:39.374Z,903.00
2023-05-02T11:14:39.393Z,832.00
2023-05-02T11:15:39.661Z,734.00
2023-05-02T11:16:39.556Z,650.00
2023-05-02T11:17:39.616Z,646.00
2023-05-02T11:18:39.606Z,655.00
2023-05-02T11:19:39.656Z,673.00
2023-05-02T11:20:39.703Z,666.00
2023-05-02T11:21:39.729Z,668.00
2023-05-02T11:22:39.738Z,672.00
2023-05-02T11:23:39.795Z,677.00
2023-05-02T11:24:39.833Z,677.00
2023-05-02T11:25:39.900Z,662.00
2023-05-02T11:26:39.912Z,646.00
2023-05-02T11:27:39.969Z,627.00
2023-05-02T11:28:40.014Z,602.00
2023-05-02T11:29:40.024Z,595.00
2023-05-02T11:30:40.050Z,621.00
2023-05-02T11:31:40.119Z,633.00
2023-05-02T11:32:40.106Z,618.00
2023-05-02T11:33:40.125Z,622.00
2023-05-02T11:34:40.129Z,628.00
2023-05-02T11:35:40.176Z,635.00
2023-05-02T11:36:40.204Z,641.00
2023-05-02T11:37:40.235Z,645.00
2023-05-02T11:38:40.280Z,644.00
2023-05-02T11:39:40.257Z,640.00
2023-05-02T11:40:40.282Z,643.00
2023-05-02T11:41:40.289Z,643.00
2023-05-02T11:42:40.301Z,644.00
2023-05-02T11:43:40.371Z,644.00
2023-05-02T11:44:40.389Z,644.00
2023-05-02T11:45:40.418Z,644.00
2023-05-02T11:46:40.700Z,639.00
2023-05-02T11:47:40.529Z,636.00
2023-05-02T11:48:40.575Z,637.00
2023-05-02T11:49:40.612Z,633.00
2023-05-02T11:50:43.990Z,631.00
2023-05-02T11:51:41.596Z,628.00
2023-05-02T11:52:40.586Z,625.00
2023-05-02T11:53:40.602Z,623.00
2023-05-02T11:54:40.587Z,621.00
2023-05-02T11:55:40.579Z,620.00
2023-05-02T11:56:40.553Z,616.00
2023-05-02T11:57:40.573Z,615.00
2023-05-02T11:58:40.542Z,612.00
2023-05-02T11:59:40.543Z,607.00
2023-05-02T12:00:40.529Z,600.00
2023-05-02T12:01:40.547Z,597.00
2023-05-02T12:02:40.629Z,595.00
2023-05-02T12:03:40.730Z,590.00
2023-05-02T12:04:40.668Z,590.00
2023-05-02T12:05:40.747Z,587.00
2023-05-02T12:06:40.816Z,583.00
2023-05-02T12:07:40.795Z,581.00
2023-05-02T12:08:41.180Z,579.00
2023-05-02T12:09:40.783Z,576.00
2023-05-02T12:10:40.782Z,575.00
2023-05-02T12:11:40.795Z,571.00
2023-05-02T12:12:40.805Z,568.00
2023-05-02T12:13:40.802Z,566.00
2023-05-02T12:14:40.803Z,565.00
2023-05-02T12:15:40.921Z,565.00
2023-05-02T12:16:40.948Z,564.00
2023-05-02T12:17:40.936Z,560.00
2023-05-02T12:18:40.979Z,559.00
2023-05-02T12:19:41.019Z,556.00
2023-05-02T12:20:41.090Z,556.00
2023-05-02T12:21:41.118Z,554.00
2023-05-02T12:22:41.141Z,551.00
2023-05-02T12:23:41.156Z,549.00
2023-05-02T12:24:41.181Z,545.00
2023-05-02T12:25:41.164Z,542.00
2023-05-02T12:26:41.167Z,541.00
2023-05-02T12:27:41.161Z,536.00
2023-05-02T12:28:41.175Z,531.00
2023-05-02T12:29:41.180Z,531.00